Time;durP1;ratioP1;P1;durP2;ratioP2;P2;SDS_P1;SDS_P2;PMS_P1;PMS_P2;Temp;Humidity;BMP_temperature;BMP_pressure;BME280_temperature;BME280_humidity;BME280_pressure;Samples;Min_cycle;Max_cycle;Signal;HPM_P1;HPM_P2
2022/01/24 00:02:13;;;;;;;7.90;7.20;;;;;;;9.53;65.38;103116.97;5098812;28;20472;-79
2022/01/24 00:04:41;;;;;;;8.30;7.40;;;;;;;9.02;67.71;103119.44;5099060;28;20424;-77
2022/01/24 00:07:07;;;;;;;8.83;8.03;;;;;;;8.77;68.94;103125.91;5098753;28;20191;-75
2022/01/24 00:09:32;;;;;;;10.23;9.03;;;;;;;8.63;69.70;103122.53;5098846;28;20646;-75
2022/01/24 00:12:13;;;;;;;9.47;8.33;;;;;;;8.45;70.01;103121.47;5099081;28;20206;-74
2022/01/24 00:17:40;;;;;;;9.40;8.50;;;;;;;8.04;72.47;103123.47;5064802;28;20410;-75
2022/01/24 00:28:06;;;;;;;12.20;9.10;;;;;;;8.05;73.50;103120.97;5098532;28;20396;-76
2022/01/24 00:30:32;;;;;;;12.30;9.20;;;;;;;8.14;73.28;103107.59;5098344;28;20446;-75
2022/01/24 00:32:57;;;;;;;10.10;8.90;;;;;;;7.95;74.47;103113.44;5098122;28;20180;-76
2022/01/24 00:35:23;;;;;;;9.70;8.80;;;;;;;7.71;74.58;103113.78;5081342;28;20225;-76
2022/01/24 00:37:48;;;;;;;9.80;8.77;;;;;;;7.66;75.06;103115.22;5098208;28;20217;-76
2022/01/24 00:40:14;;;;;;;9.13;8.20;;;;;;;7.89;75.26;103107.91;5098163;28;20242;-76
2022/01/24 00:45:26;;;;;;;10.50;9.47;;;;;;;7.87;74.12;103106.91;5098233;28;20388;-76
2022/01/24 00:55:47;;;;;;;9.93;8.97;;;;;;;7.30;77.16;103116.47;5098423;28;20487;-75
2022/01/24 00:58:13;;;;;;;10.10;9.10;;;;;;;7.48;76.42;103109.81;5098245;28;20505;-74
2022/01/24 01:00:39;;;;;;;9.83;8.83;;;;;;;7.48;76.09;103114.09;5084529;28;20540;-76
2022/01/24 01:03:04;;;;;;;10.30;8.97;;;;;;;8.06;73.90;103101.06;5102080;28;20841;-74
2022/01/24 01:18:56;;;;;;;11.43;9.00;;;;;;;7.81;74.47;103114.34;5101938;28;20434;-76
2022/01/24 01:21:22;;;;;;;9.50;8.50;;;;;;;7.80;74.34;103112.53;5101854;28;20859;-76
2022/01/24 01:23:53;;;;;;;14.87;12.53;;;;;;;7.83;74.82;103112.72;5101704;28;20414;-76
2022/01/24 01:29:02;;;;;;;10.23;9.23;;;;;;;7.47;76.86;103110.59;5101719;28;20414;-76
2022/01/24 01:34:05;;;;;;;10.00;9.00;;;;;;;7.40;76.35;103111.03;5101700;28;20822;-75
2022/01/24 01:55:38;;;;;;;10.80;9.40;;;;;;;7.33;77.07;103116.66;5100117;28;20496;-75
2022/01/24 01:58:05;;;;;;;10.73;9.63;;;;;;;7.29;77.08;103119.84;5100024;28;20786;-74
2022/01/24 02:00:30;;;;;;;10.60;9.07;;;;;;;6.73;78.40;103114.69;5099897;28;20815;-75
2022/01/24 02:02:55;;;;;;;12.33;10.97;;;;;;;7.48;76.37;103114.09;5099572;28;20421;-74
2022/01/24 02:05:22;;;;;;;17.03;10.10;;;;;;;7.21;76.67;103109.00;5100442;28;20179;-75
2022/01/24 02:07:49;;;;;;;14.03;12.47;;;;;;;7.45;76.13;103104.41;5099785;28;20545;-76
2022/01/24 02:10:16;;;;;;;14.00;11.50;;;;;;;7.63;75.81;103115.03;5099330;28;20410;-74
2022/01/24 02:12:41;;;;;;;14.00;10.70;;;;;;;7.32;75.70;103113.16;5099988;28;20399;-74
2022/01/24 02:15:07;;;;;;;12.43;10.67;;;;;;;6.97;77.75;103114.47;5099572;28;20878;-74
2022/01/24 02:17:48;;;;;;;10.93;9.83;;;;;;;7.30;76.78;103119.94;5099525;28;20431;-75
2022/01/24 02:23:13;;;;;;;12.87;11.00;;;;;;;7.45;75.87;103117.38;5099375;28;20436;-75
2022/01/24 02:25:36;;;;;;;10.80;9.67;;;;;;;7.22;76.23;103110.81;5099319;28;20463;-76
2022/01/24 02:28:03;;;;;;;11.73;10.43;;;;;;;7.00;77.04;103117.25;5099470;28;20410;-75
2022/01/24 02:32:57;;;;;;;17.30;12.50;;;;;;;7.21;75.95;103109.91;5099271;28;20425;-75
2022/01/24 02:35:22;;;;;;;13.97;10.77;;;;;;;7.23;75.93;103110.00;5099791;28;20436;-77
2022/01/24 02:37:47;;;;;;;15.77;10.30;;;;;;;6.91;75.98;103107.22;5099383;28;20172;-75
2022/01/24 02:40:19;;;;;;;11.37;10.10;;;;;;;7.01;75.80;103116.47;5099275;28;20168;-77
2022/01/24 02:48:28;;;;;;;11.73;10.27;;;;;;;6.97;75.95;103113.56;5099274;28;20895;-74
2022/01/24 02:53:42;;;;;;;13.20;11.07;;;;;;;7.17;74.99;103105.34;5062848;28;1046721;-74
2022/01/24 02:56:08;;;;;;;11.23;10.03;;;;;;;6.82;76.40;103108.31;5100015;28;20192;-74
2022/01/24 02:58:34;;;;;;;11.67;10.47;;;;;;;6.91;76.61;103109.81;5100210;28;20215;-74
2022/01/24 03:00:59;;;;;;;13.70;11.17;;;;;;;7.35;74.64;103108.16;5100250;28;20495;-74
2022/01/24 03:03:25;;;;;;;11.43;10.30;;;;;;;7.08;74.45;103110.84;5099772;28;20506;-75
2022/01/24 03:05:51;;;;;;;10.87;9.77;;;;;;;7.25;74.46;103113.56;5099882;28;20188;-74
2022/01/24 03:08:16;;;;;;;11.10;9.53;;;;;;;7.38;73.69;103105.75;5100382;28;20156;-75
2022/01/24 03:10:45;;;;;;;10.50;9.30;;;;;;;7.21;75.36;103101.22;5082214;28;20418;-73
2022/01/24 03:15:56;;;;;;;11.23;9.70;;;;;;;7.02;75.58;103094.91;5099738;28;20393;-76
2022/01/24 03:18:22;;;;;;;10.30;8.73;;;;;;;6.90;74.36;103092.44;5099573;28;20403;-75
2022/01/24 03:20:48;;;;;;;10.00;8.87;;;;;;;7.06;74.25;103086.53;5099133;28;20400;-75
2022/01/24 03:23:14;;;;;;;10.80;9.37;;;;;;;6.88;75.40;103077.59;5098949;28;20180;-76
2022/01/24 03:25:40;;;;;;;9.97;8.87;;;;;;;6.82;75.65;103082.38;5100091;28;20505;-76
2022/01/24 03:28:06;;;;;;;9.97;8.93;;;;;;;6.89;75.90;103080.28;5099362;28;20555;-77
2022/01/24 03:30:32;;;;;;;9.23;8.10;;;;;;;7.17;74.87;103078.47;5099249;28;20229;-76
2022/01/24 03:32:58;;;;;;;9.83;8.83;;;;;;;6.99;75.29;103073.06;5099521;28;20165;-75
2022/01/24 03:35:25;;;;;;;10.30;9.27;;;;;;;7.19;75.11;103076.91;5099303;28;20701;-76
2022/01/24 03:37:50;;;;;;;9.30;8.20;;;;;;;6.47;77.12;103076.75;5099216;28;20496;-76
2022/01/24 03:40:15;;;;;;;11.80;8.13;;;;;;;6.64;77.13;103077.81;5099603;28;20651;-75
2022/01/24 03:42:40;;;;;;;10.60;7.90;;;;;;;7.01;75.81;103079.22;5099063;28;20607;-75
2022/01/24 03:45:09;;;;;;;8.77;7.97;;;;;;;6.62;77.25;103094.97;5098943;28;20172;-75
2022/01/24 03:50:06;;;;;;;9.80;8.90;;;;;;;6.74;76.88;103095.75;5082485;28;20819;-75
2022/01/24 03:52:31;;;;;;;9.77;8.10;;;;;;;7.00;76.45;103103.41;5099048;28;20432;-75
2022/01/24 03:54:58;;;;;;;9.40;8.10;;;;;;;6.81;76.96;103101.34;5099383;28;20393;-75
2022/01/24 03:57:24;;;;;;;10.83;8.77;;;;;;;6.60;77.97;103108.63;5098982;28;20183;-75
2022/01/24 03:59:49;;;;;;;8.50;7.63;;;;;;;6.57;78.02;103099.84;5098997;28;20695;-75
2022/01/24 04:02:17;;;;;;;10.40;8.07;;;;;;;6.83;77.08;103099.72;5099224;28;20192;-76
2022/01/24 04:04:43;;;;;;;11.00;9.10;;;;;;;7.31;76.38;103093.22;5098664;28;20176;-76
2022/01/24 04:07:09;;;;;;;11.70;8.87;;;;;;;6.68;77.27;103099.66;5098621;28;20486;-75
2022/01/24 04:09:35;;;;;;;9.97;7.83;;;;;;;6.80;77.78;103100.44;5099133;28;20176;-76
2022/01/24 04:12:01;;;;;;;9.70;8.73;;;;;;;7.07;76.73;103096.06;5098645;28;20163;-74
2022/01/24 04:22:18;;;;;;;11.13;9.93;;;;;;;6.85;76.89;103096.44;5099157;28;20564;-76
2022/01/24 04:24:45;;;;;;;10.03;9.03;;;;;;;6.82;75.90;103100.53;5081438;28;20480;-75
2022/01/24 04:27:11;;;;;;;10.67;9.13;;;;;;;6.43;77.54;103099.75;5081055;28;20539;-74
2022/01/24 04:29:36;;;;;;;10.50;8.13;;;;;;;6.61;77.04;103097.47;5098666;28;20508;-74
2022/01/24 04:32:03;;;;;;;11.07;9.33;;;;;;;6.49;77.16;103095.88;5098584;28;20385;-75
2022/01/24 04:34:29;;;;;;;11.50;10.30;;;;;;;6.29;77.61;103102.38;5098688;28;20233;-75
2022/01/24 04:36:54;;;;;;;13.00;10.10;;;;;;;6.44;78.22;103102.47;5098490;28;20414;-75
2022/01/24 04:39:19;;;;;;;11.73;9.93;;;;;;;6.76;76.59;103090.66;5098369;28;20176;-73
2022/01/24 04:41:48;;;;;;;11.27;9.63;;;;;;;6.92;75.78;103097.72;5098644;28;20191;-73
2022/01/24 04:54:44;;;;;;;11.83;10.53;;;;;;;6.18;78.98;103096.50;5098313;28;20419;-76
2022/01/24 04:57:16;;;;;;;15.23;13.00;;;;;;;6.86;76.77;103095.66;5098272;28;20418;-74
2022/01/24 04:59:44;;;;;;;14.00;11.10;;;;;;;6.48;77.32;103095.78;5098111;28;20217;-75
2022/01/24 05:02:09;;;;;;;12.37;10.63;;;;;;;6.62;76.88;103088.91;5098144;28;20472;-75
2022/01/24 05:04:36;;;;;;;16.83;10.50;;;;;;;6.81;76.19;103088.38;5098296;28;20410;-74
2022/01/24 05:07:01;;;;;;;12.60;10.33;;;;;;;6.42;77.20;103093.69;5097995;28;20183;-74
2022/01/24 05:09:31;;;;;;;13.30;10.40;;;;;;;6.46;77.65;103090.50;5080394;28;20418;-74
2022/01/24 05:12:05;;;;;;;11.20;10.00;;;;;;;6.32;77.85;103088.72;5098581;28;20302;-74
2022/01/24 05:25:27;;;;;;;12.13;10.77;;;;;;;6.52;77.17;103095.19;5097968;28;20391;-75
2022/01/24 05:27:52;;;;;;;14.00;12.30;;;;;;;6.47;77.35;103094.91;5097929;28;20419;-75
2022/01/24 05:30:17;;;;;;;18.70;12.90;;;;;;;6.54;76.90;103101.38;5098005;28;20172;-76
2022/01/24 05:32:43;;;;;;;13.70;11.50;;;;;;;6.52;76.44;103100.38;5097629;28;20172;-77
2022/01/24 05:35:09;;;;;;;16.60;13.03;;;;;;;6.85;76.55;103098.16;5098278;28;20172;-75
2022/01/24 05:37:34;;;;;;;15.13;11.93;;;;;;;6.38;76.18;103105.53;5097506;28;20800;-73
2022/01/24 05:40:00;;;;;;;15.50;12.93;;;;;;;6.71;76.10;103095.56;5097828;28;20268;-74
2022/01/24 05:42:25;;;;;;;19.77;14.40;;;;;;;7.08;74.59;103096.97;5080569;28;20554;-75
2022/01/24 05:44:52;;;;;;;15.50;12.40;;;;;;;6.93;74.36;103102.13;5098411;28;20676;-75
2022/01/24 05:47:17;;;;;;;14.60;12.67;;;;;;;6.92;73.94;103095.13;5101385;28;20175;-74
2022/01/24 05:49:43;;;;;;;15.70;13.17;;;;;;;7.01;74.13;103099.97;5101655;28;20389;-75
2022/01/24 05:52:09;;;;;;;18.10;14.10;;;;;;;7.01;73.75;103108.69;5083401;28;20168;-75
2022/01/24 05:54:36;;;;;;;17.50;12.77;;;;;;;7.14;73.93;103106.84;5101010;28;20243;-76
2022/01/24 05:57:02;;;;;;;13.97;12.47;;;;;;;6.80;74.63;103104.72;5101715;28;20381;-75
2022/01/24 05:59:28;;;;;;;18.93;13.37;;;;;;;7.05;73.99;103102.88;5101142;28;20395;-75
2022/01/24 06:01:53;;;;;;;15.37;13.33;;;;;;;7.02;73.93;103105.28;5101011;28;20461;-75
2022/01/24 06:04:18;;;;;;;15.00;13.40;;;;;;;6.97;74.78;103113.56;5101234;28;20164;-75
2022/01/24 06:06:44;;;;;;;18.43;14.63;;;;;;;6.77;75.27;103105.44;5100855;28;20172;-74
2022/01/24 06:09:09;;;;;;;14.87;12.50;;;;;;;6.86;74.39;103108.59;5100944;28;20183;-74
2022/01/24 06:11:34;;;;;;;14.50;12.90;;;;;;;6.64;75.28;103108.91;5101588;28;20179;-75
2022/01/24 06:14:02;;;;;;;16.27;13.53;;;;;;;6.73;75.47;103119.00;5100903;28;20215;-75
2022/01/24 06:16:27;;;;;;;15.60;12.77;;;;;;;6.82;74.68;103110.91;5100815;28;20168;-75
2022/01/24 06:18:52;;;;;;;18.63;15.03;;;;;;;6.86;75.04;103115.47;5101437;28;20878;-74
2022/01/24 06:21:18;;;;;;;15.57;13.73;;;;;;;6.72;75.10;103115.53;5100706;28;20291;-75
2022/01/24 06:23:43;;;;;;;16.73;14.00;;;;;;;7.21;73.75;103109.91;5101549;28;20176;-75
2022/01/24 06:26:10;;;;;;;17.40;13.30;;;;;;;7.17;74.07;103113.13;5102478;28;20197;-74
2022/01/24 06:28:35;;;;;;;16.60;13.93;;;;;;;6.95;74.88;103121.25;5101682;28;20169;-75
2022/01/24 06:31:01;;;;;;;17.93;13.80;;;;;;;6.81;74.84;103116.91;5101013;28;20425;-75
2022/01/24 06:33:26;;;;;;;17.57;14.37;;;;;;;6.73;75.22;103124.19;5101237;28;20183;-76
2022/01/24 06:35:52;;;;;;;17.50;13.73;;;;;;;7.04;74.15;103121.81;5101149;28;20534;-76
2022/01/24 06:38:17;;;;;;;17.10;13.70;;;;;;;7.16;73.79;103110.44;5102462;28;20176;-76
2022/01/24 06:40:42;;;;;;;18.67;14.37;;;;;;;7.01;73.98;103121.63;5100524;28;20222;-75
2022/01/24 06:43:08;;;;;;;18.97;14.60;;;;;;;6.69;75.56;103122.19;5100303;28;20176;-76
2022/01/24 06:45:33;;;;;;;18.30;15.70;;;;;;;6.83;74.73;103123.06;5100276;28;20180;-75
2022/01/24 06:48:01;;;;;;;22.47;14.73;;;;;;;6.85;74.64;103121.47;5100867;28;20180;-75
2022/01/24 06:50:27;;;;;;;17.97;13.20;;;;;;;7.06;74.97;103117.66;5100753;28;20191;-73
2022/01/24 06:52:52;;;;;;;17.53;13.80;;;;;;;6.67;75.28;103110.81;5078785;28;20438;-76
2022/01/24 06:55:17;;;;;;;17.77;13.80;;;;;;;6.43;76.70;103123.09;5080619;28;20169;-76
2022/01/24 06:57:43;;;;;;;16.60;14.30;;;;;;;6.51;76.20;103114.16;5078581;28;20176;-75
2022/01/24 07:00:09;;;;;;;18.73;14.57;;;;;;;6.76;75.84;103113.13;5079811;28;20187;-76
2022/01/24 07:02:34;;;;;;;19.00;14.80;;;;;;;6.81;75.17;103119.50;5080057;28;20222;-76
2022/01/24 07:05:00;;;;;;;17.40;14.23;;;;;;;6.79;76.86;103118.47;5079454;28;20648;-76
2022/01/24 07:07:25;;;;;;;18.20;14.67;;;;;;;7.04;74.16;103120.94;5079401;28;20184;-76
2022/01/24 07:09:50;;;;;;;17.27;14.67;;;;;;;6.88;74.69;103113.88;5080017;28;20184;-76
2022/01/24 07:12:16;;;;;;;17.70;15.00;;;;;;;7.35;72.96;103112.47;5079487;28;20264;-77
2022/01/24 07:14:42;;;;;;;18.07;14.90;;;;;;;7.17;73.26;103104.44;5078507;28;20228;-76
2022/01/24 07:19:48;;;;;;;19.47;15.07;;;;;;;7.24;73.25;103109.22;5079390;28;20422;-75
2022/01/24 07:22:13;;;;;;;19.43;14.73;;;;;;;7.18;73.71;103107.09;5078328;28;20742;-74
2022/01/24 07:24:38;;;;;;;20.83;15.57;;;;;;;7.16;74.11;103106.13;5079061;28;20176;-76
2022/01/24 07:27:04;;;;;;;19.80;15.17;;;;;;;7.04;74.63;103111.44;5079201;28;20180;-77
2022/01/24 07:29:30;;;;;;;19.77;16.00;;;;;;;6.90;74.32;103114.88;5079843;28;20617;-76
2022/01/24 07:31:57;;;;;;;21.07;15.90;;;;;;;7.12;74.03;103127.50;5078611;28;20556;-76
2022/01/24 07:34:23;;;;;;;19.47;15.30;;;;;;;7.04;74.00;103124.41;5078922;28;20394;-77
2022/01/24 07:36:48;;;;;;;22.23;16.57;;;;;;;7.12;73.67;103122.31;5061929;28;20408;-75
2022/01/24 07:39:13;;;;;;;20.67;16.97;;;;;;;6.71;74.46;103121.50;5079114;28;20183;-76
2022/01/24 07:41:45;;;;;;;21.70;16.10;;;;;;;6.87;74.53;103127.66;5079076;28;20239;-77
2022/01/24 07:44:10;;;;;;;17.63;14.50;;;;;;;6.88;73.92;103126.84;5079051;28;20176;-77
2022/01/24 07:46:36;;;;;;;22.50;16.40;;;;;;;7.25;73.68;103121.34;5078044;28;20390;-74
2022/01/24 07:49:02;;;;;;;20.00;15.40;;;;;;;7.01;75.13;103120.72;5078709;28;20215;-76
2022/01/24 07:51:28;;;;;;;20.40;15.20;;;;;;;6.76;74.67;103118.31;5079255;28;20530;-74
2022/01/24 07:53:53;;;;;;;25.47;18.07;;;;;;;7.06;73.05;103116.72;5095688;28;20458;-76
2022/01/24 07:56:18;;;;;;;21.43;16.63;;;;;;;7.09;72.99;103116.94;5081428;28;20267;-76
2022/01/24 07:58:44;;;;;;;22.47;17.43;;;;;;;7.45;72.18;103113.91;5099331;28;20178;-76
2022/01/24 08:01:10;;;;;;;24.37;18.23;;;;;;;7.19;72.45;103108.03;5098549;28;20209;-75
2022/01/24 08:03:35;;;;;;;28.20;19.30;;;;;;;6.72;73.78;103118.13;5080811;28;20395;-76
2022/01/24 08:06:01;;;;;;;27.77;19.53;;;;;;;7.46;70.98;103115.72;5099507;28;20418;-76
2022/01/24 08:08:26;;;;;;;24.60;18.50;;;;;;;6.96;71.79;103114.38;5098085;28;20191;-76
2022/01/24 08:10:51;;;;;;;28.77;20.10;;;;;;;7.13;71.39;103113.75;5098569;28;20248;-76
2022/01/24 08:13:17;;;;;;;28.03;20.50;;;;;;;7.26;70.91;103115.38;5098852;28;20269;-74
2022/01/24 08:15:42;;;;;;;27.63;19.33;;;;;;;6.85;71.90;103103.34;5098536;28;20603;-76
2022/01/24 08:18:09;;;;;;;28.87;19.07;;;;;;;7.12;70.89;103109.34;5098308;28;20184;-76
2022/01/24 08:20:34;;;;;;;29.77;21.43;;;;;;;7.26;70.31;103112.78;5099006;28;20422;-75
2022/01/24 08:23:00;;;;;;;30.80;20.80;;;;;;;7.27;70.38;103111.97;5098406;28;20536;-75
2022/01/24 08:25:26;;;;;;;30.23;21.10;;;;;;;6.73;71.63;103113.81;5098337;28;20256;-78
2022/01/24 08:27:52;;;;;;;31.10;22.23;;;;;;;6.51;71.81;103119.31;5098977;28;20200;-76
2022/01/24 08:30:19;;;;;;;32.93;22.90;;;;;;;7.15;70.17;103114.72;5098450;28;20437;-75
2022/01/24 08:32:46;;;;;;;31.40;21.60;;;;;;;7.38;68.97;103108.34;5098160;28;20418;-76
2022/01/24 08:35:11;;;;;;;30.20;21.93;;;;;;;7.25;71.06;103108.38;5098859;28;20411;-75
2022/01/24 08:37:37;;;;;;;33.70;23.30;;;;;;;7.51;67.95;103109.06;5098220;28;20418;-75
2022/01/24 08:40:07;;;;;;;30.90;21.80;;;;;;;7.16;69.29;103102.66;5098196;28;20182;-75
2022/01/24 08:42:41;;;;;;;31.90;22.10;;;;;;;7.44;68.81;103113.00;5081208;28;20203;-76
2022/01/24 08:47:35;;;;;;;35.57;24.13;;;;;;;7.52;67.57;103110.88;5098485;28;20486;-76
2022/01/24 08:50:01;;;;;;;33.60;23.90;;;;;;;7.58;67.28;103116.44;5098190;28;20411;-77
2022/01/24 08:52:26;;;;;;;38.83;27.27;;;;;;;7.41;67.42;103116.34;5098212;28;20447;-76
2022/01/24 08:54:52;;;;;;;36.93;25.30;;;;;;;7.21;68.84;103114.19;5098399;28;20393;-75
2022/01/24 08:57:25;;;;;;;32.00;23.77;;;;;;;7.49;67.33;103121.09;5098115;28;20179;-76
2022/01/24 08:59:54;;;;;;;39.53;25.50;;;;;;;7.12;69.15;103118.81;5098017;28;20262;-76
2022/01/24 09:02:20;;;;;;;39.07;29.20;;;;;;;7.29;68.02;103112.97;5098001;28;20432;-75
2022/01/24 09:04:45;;;;;;;37.10;24.97;;;;;;;6.78;70.07;103112.41;5097969;28;20425;-76
2022/01/24 09:07:11;;;;;;;39.70;25.20;;;;;;;7.08;69.28;103112.56;5098257;28;20461;-76
2022/01/24 09:09:36;;;;;;;37.03;25.43;;;;;;;6.96;68.97;103102.28;5097893;28;20172;-74
2022/01/24 09:12:03;;;;;;;32.93;23.20;;;;;;;7.35;67.67;103100.38;5098041;28;20200;-76
2022/01/24 09:14:28;;;;;;;41.07;26.27;;;;;;;7.62;67.07;103097.66;5098046;28;20278;-76
2022/01/24 09:16:54;;;;;;;35.33;26.97;;;;;;;7.65;66.96;103091.75;5097940;28;20830;-77
2022/01/24 09:19:19;;;;;;;36.37;25.10;;;;;;;7.21;67.24;103103.81;5098107;28;20180;-75
2022/01/24 09:21:44;;;;;;;24.33;16.67;;;;;;;9.13;76.14;103089.69;5102305;28;20192;-64
2022/01/24 09:24:10;;;;;;;12.50;9.80;;;;;;;12.03;66.67;103083.38;5110475;28;20230;-69
2022/01/24 09:26:35;;;;;;;38.10;26.57;;;;;;;10.08;59.38;103093.72;5104081;28;20555;-70
2022/01/24 09:29:01;;;;;;;35.70;25.67;;;;;;;8.10;64.19;103108.22;5122302;28;20182;-73
2022/01/24 09:31:26;;;;;;;34.50;26.23;;;;;;;7.85;64.68;103111.13;5098751;28;20262;-74
2022/01/24 09:33:53;;;;;;;35.17;25.20;;;;;;;7.61;66.09;103113.16;5101546;28;20420;-72
2022/01/24 09:36:19;;;;;;;34.50;26.30;;;;;;;7.47;66.40;103117.47;5101968;28;20233;-74
2022/01/24 09:38:44;;;;;;;36.23;25.20;;;;;;;7.57;65.98;103112.06;5101696;28;20449;-74
2022/01/24 09:41:12;;;;;;;38.20;26.03;;;;;;;7.66;66.05;103106.50;5116638;28;20518;-72
2022/01/24 09:43:38;;;;;;;36.60;25.97;;;;;;;7.78;66.48;103103.75;5122105;28;20167;-73
2022/01/24 09:46:04;;;;;;;37.70;26.20;;;;;;;7.66;66.87;103110.03;5122479;28;20544;-75
2022/01/24 09:48:30;;;;;;;40.20;25.90;;;;;;;7.56;66.89;103107.66;5122377;28;20227;-73
2022/01/24 09:50:55;;;;;;;38.80;26.50;;;;;;;7.87;66.06;103099.09;5104823;28;20429;-76
2022/01/24 09:53:22;;;;;;;37.77;25.40;;;;;;;7.64;65.96;103101.22;5108782;28;20469;-71
2022/01/24 09:55:48;;;;;;;35.77;25.07;;;;;;;7.32;68.06;103096.69;5101215;28;20258;-71
2022/01/24 09:58:14;;;;;;;33.10;23.47;;;;;;;7.24;67.23;103098.84;5086548;28;20793;-71
2022/01/24 10:00:39;;;;;;;39.60;26.27;;;;;;;7.60;66.59;103099.25;5081067;28;20396;-72
2022/01/24 10:03:07;;;;;;;34.70;24.13;;;;;;;7.12;67.75;103104.16;5080659;28;20522;-71
2022/01/24 10:05:37;;;;;;;32.03;23.43;;;;;;;7.22;67.56;103106.50;5081196;28;20190;-73
2022/01/24 10:08:05;;;;;;;34.70;23.30;;;;;;;6.91;69.41;103114.06;5080982;28;20471;-74
2022/01/24 10:10:40;;;;;;;31.80;23.40;;;;;;;7.25;67.69;103110.97;5063392;28;20423;-74
2022/01/24 10:16:31;;;;;;;31.57;21.90;;;;;;;7.55;66.86;103105.84;5066146;28;20874;-75
2022/01/24 10:19:16;;;;;;;29.57;21.13;;;;;;;6.97;68.39;103106.69;5080737;28;20389;-71
2022/01/24 10:21:49;;;;;;;32.17;22.20;;;;;;;7.51;67.84;103106.47;5080536;28;20447;-71
2022/01/24 10:24:41;;;;;;;34.17;21.40;;;;;;;7.16;67.61;103097.47;5080548;28;20392;-71
2022/01/24 10:27:19;;;;;;;30.63;21.07;;;;;;;6.73;68.54;103099.16;5080427;28;20382;-75
2022/01/24 10:29:51;;;;;;;30.47;21.23;;;;;;;7.03;68.28;103099.28;5080326;28;20482;-74
2022/01/24 10:32:31;;;;;;;30.97;21.17;;;;;;;7.17;68.24;103109.63;5094534;28;20415;-72
2022/01/24 10:34:57;;;;;;;30.80;21.40;;;;;;;7.35;67.88;103097.78;5100568;28;20446;-74
2022/01/24 10:37:24;;;;;;;30.50;20.40;;;;;;;7.32;67.22;103104.47;5082835;28;20476;-75
2022/01/24 10:40:05;;;;;;;28.50;19.67;;;;;;;6.78;69.16;103095.94;5100102;28;20513;-75
2022/01/24 10:42:41;;;;;;;28.60;21.13;;;;;;;7.41;67.19;103100.75;5100281;28;20428;-74
2022/01/24 10:45:16;;;;;;;27.73;19.97;;;;;;;7.35;67.00;103097.78;5100584;28;20432;-74
2022/01/24 10:47:46;;;;;;;27.60;20.03;;;;;;;6.71;69.10;103092.97;5100392;28;20392;-75
2022/01/24 10:50:25;;;;;;;28.07;19.57;;;;;;;7.50;67.16;103092.63;5100162;28;20396;-73
2022/01/24 10:52:52;;;;;;;27.80;20.30;;;;;;;7.65;66.75;103092.63;5100075;28;20708;-72
2022/01/24 10:55:24;;;;;;;28.37;21.93;;;;;;;7.76;66.07;103086.38;5100069;28;20406;-72
2022/01/24 10:58:05;;;;;;;30.07;19.50;;;;;;;7.62;66.35;103084.69;5100221;28;20406;-72
2022/01/24 11:00:31;;;;;;;27.40;19.40;;;;;;;7.31;67.48;103090.59;5100081;28;20417;-72
2022/01/24 11:02:59;;;;;;;28.20;19.30;;;;;;;7.29;67.64;103092.19;5099799;28;20454;-73
2022/01/24 11:05:35;;;;;;;25.80;19.33;;;;;;;7.12;67.59;103092.84;5099979;28;20385;-71
2022/01/24 11:08:09;;;;;;;31.67;19.50;;;;;;;7.22;67.84;103084.84;5099818;28;20391;-72
2022/01/24 11:10:46;;;;;;;28.30;19.30;;;;;;;7.07;67.77;103084.81;5100138;28;20688;-74
2022/01/24 11:13:12;;;;;;;32.77;21.93;;;;;;;6.83;68.23;103085.09;5099608;28;20449;-72
2022/01/24 11:15:41;;;;;;;30.10;21.40;;;;;;;7.14;67.60;103079.19;5099753;28;20414;-74
2022/01/24 11:18:07;;;;;;;30.40;20.73;;;;;;;6.93;67.22;103080.44;5099717;28;20447;-72
2022/01/24 11:20:35;;;;;;;30.83;19.90;;;;;;;7.16;67.14;103074.13;5100255;28;20445;-71
2022/01/24 11:23:05;;;;;;;33.73;21.93;;;;;;;7.28;67.28;103068.75;5099459;28;20547;-72
2022/01/24 11:25:35;;;;;;;30.53;20.97;;;;;;;7.40;66.72;103075.59;5099572;28;20389;-73
2022/01/24 11:28:00;;;;;;;30.67;21.60;;;;;;;6.83;67.68;103077.31;5081943;28;20747;-76
2022/01/24 11:30:29;;;;;;;35.37;23.00;;;;;;;6.60;68.30;103070.66;5099713;28;20385;-79
2022/01/24 11:33:02;;;;;;;34.27;22.53;;;;;;;6.50;69.28;103060.50;5061950;28;20173;-76
2022/01/24 11:35:40;;;;;;;37.40;22.40;;;;;;;6.87;68.21;103055.03;5079303;28;20418;-77
2022/01/24 11:38:26;;;;;;;34.00;22.60;;;;;;;6.90;68.09;103060.41;5079674;28;20419;-76
2022/01/24 11:40:57;;;;;;;38.40;23.27;;;;;;;6.70;68.70;103065.25;5080036;28;20403;-76
2022/01/24 11:43:43;;;;;;;30.80;21.07;;;;;;;7.28;67.59;103059.28;5080796;28;20378;-78
2022/01/24 11:46:46;;;;;;;36.23;22.23;;;;;;;6.78;68.89;103059.66;5080659;28;20415;-77
2022/01/24 11:49:35;;;;;;;35.47;23.30;;;;;;;7.19;67.46;103063.91;5079171;28;20426;-76
2022/01/24 11:52:13;;;;;;;36.17;23.90;;;;;;;7.58;66.38;103064.53;5078635;28;20382;-76
2022/01/24 11:57:24;;;;;;;37.00;24.93;;;;;;;7.26;67.18;103055.69;5078684;28;20407;-75
2022/01/24 12:00:11;;;;;;;40.50;25.60;;;;;;;7.57;65.98;103053.22;5078819;28;20385;-69
2022/01/24 12:02:37;;;;;;;39.43;25.43;;;;;;;7.04;68.02;103054.38;5078689;28;20444;-76
2022/01/24 12:05:15;;;;;;;41.00;27.40;;;;;;;7.96;65.79;103058.09;5078772;28;20471;-76
2022/01/24 12:08:01;;;;;;;40.83;26.40;;;;;;;7.73;65.23;103052.44;5078604;28;20173;-75
2022/01/24 12:10:33;;;;;;;43.17;26.90;;;;;;;7.31;66.12;103067.25;5078598;28;20736;-75
2022/01/24 12:13:02;;;;;;;47.10;28.17;;;;;;;7.12;67.43;103066.91;5078348;28;20878;-75
2022/01/24 12:15:36;;;;;;;46.03;28.50;;;;;;;7.60;66.31;103057.72;5078400;28;20390;-74
2022/01/24 12:18:02;;;;;;;43.53;29.33;;;;;;;8.03;65.39;103049.81;5078267;28;20381;-76
2022/01/24 12:20:49;;;;;;;44.90;30.77;;;;;;;7.48;66.77;103054.41;5078494;28;20389;-80
2022/01/24 12:23:20;;;;;;;44.50;28.90;;;;;;;7.32;66.46;103050.91;5062156;28;20466;-84
2022/01/24 12:29:13;;;;;;;54.17;32.33;;;;;;;7.16;67.12;103037.81;5064953;28;20370;-74
2022/01/24 12:31:45;;;;;;;49.77;31.80;;;;;;;7.29;66.80;103029.94;5087650;28;20413;-77
2022/01/24 12:34:32;;;;;;;48.40;31.30;;;;;;;7.27;66.80;103031.56;5081385;28;21002;-75
2022/01/24 12:37:02;;;;;;;46.30;28.83;;;;;;;6.89;67.87;103031.00;5084828;28;20718;-77
2022/01/24 12:39:46;;;;;;;49.20;32.43;;;;;;;7.41;67.18;103025.50;5099397;28;20396;-76
2022/01/24 12:42:19;;;;;;;47.70;29.30;;;;;;;7.04;67.09;103025.88;5099054;28;20436;-77
2022/01/24 12:47:19;;;;;;;57.33;33.43;;;;;;;7.21;66.66;103015.59;5098313;28;20410;-75
2022/01/24 12:49:46;;;;;;;47.63;29.47;;;;;;;7.00;67.39;103026.47;5098492;28;20425;-78
2022/01/24 12:52:18;;;;;;;53.87;30.07;;;;;;;7.14;66.40;103029.91;5098808;28;20433;-84
2022/01/24 12:54:47;;;;;;;41.20;29.47;;;;;;;7.17;66.97;103036.97;5103459;28;20668;-83
2022/01/24 12:57:14;;;;;;;48.70;29.27;;;;;;;7.40;65.54;103036.69;5105464;28;20388;-79
2022/01/24 12:59:52;;;;;;;44.60;28.80;;;;;;;6.78;67.20;103025.94;5102686;28;20446;-77
2022/01/24 13:02:22;;;;;;;49.63;30.83;;;;;;;7.34;66.03;103023.31;5102514;28;20454;-79
2022/01/24 13:04:51;;;;;;;48.93;28.87;;;;;;;7.39;65.30;103024.50;5102490;28;20478;-71
2022/01/24 13:07:16;;;;;;;46.27;29.77;;;;;;;7.14;65.46;103031.63;5102098;28;20385;-74
2022/01/24 13:09:41;;;;;;;44.53;26.47;;;;;;;7.00;66.01;103028.19;5084485;28;20459;-76
2022/01/24 13:12:09;;;;;;;49.63;30.07;;;;;;;7.01;66.24;103023.09;5102362;28;20226;-76
2022/01/24 13:22:48;;;;;;;43.27;28.07;;;;;;;7.49;65.47;103007.75;5086974;28;20485;-75
2022/01/24 13:25:20;;;;;;;39.70;26.70;;;;;;;7.62;64.79;103012.00;5101777;28;20437;-71
2022/01/24 13:27:57;;;;;;;40.17;26.37;;;;;;;7.71;64.32;103004.75;5101790;28;20389;-76
2022/01/24 13:30:27;;;;;;;46.83;28.60;;;;;;;7.44;64.39;103004.00;5102030;28;20416;-78
2022/01/24 13:32:58;;;;;;;38.47;25.47;;;;;;;6.78;65.99;103011.31;5082083;28;20484;-79
2022/01/24 13:35:29;;;;;;;40.40;25.77;;;;;;;6.81;66.81;103014.09;5082034;28;20381;-78
2022/01/24 13:37:59;;;;;;;38.87;27.20;;;;;;;7.29;65.21;103016.06;5064798;28;20861;-87